sensor_id;sensor_type;location;lat;lon;timestamp;pressure;altitude;pressure_sealevel;temperature;humidity
41712;BME280;27399;51.516;13.670;2022-08-30T00:01:31;100985.91;;;17.50;84.16
41712;BME280;27399;51.516;13.670;2022-08-30T00:03:56;100979.22;;;17.32;85.08
41712;BME280;27399;51.516;13.670;2022-08-30T00:06:23;100982.63;;;17.39;84.18
41712;BME280;27399;51.516;13.670;2022-08-30T00:08:49;100954.41;;;17.19;84.88
41712;BME280;27399;51.516;13.670;2022-08-30T00:11:16;100987.03;;;17.41;84.82
41712;BME280;27399;51.516;13.670;2022-08-30T00:13:43;100979.38;;;17.26;85.44
41712;BME280;27399;51.516;13.670;2022-08-30T00:16:09;100987.31;;;17.32;85.22
41712;BME280;27399;51.516;13.670;2022-08-30T00:18:36;100977.34;;;17.01;85.98
41712;BME280;27399;51.516;13.670;2022-08-30T00:21:02;100985.78;;;17.22;85.78
41712;BME280;27399;51.516;13.670;2022-08-30T00:23:28;100987.13;;;17.38;84.63
41712;BME280;27399;51.516;13.670;2022-08-30T00:25:54;100982.09;;;17.57;83.75
41712;BME280;27399;51.516;13.670;2022-08-30T00:28:19;100980.72;;;17.42;84.21
41712;BME280;27399;51.516;13.670;2022-08-30T00:30:45;100986.38;;;17.33;85.13
41712;BME280;27399;51.516;13.670;2022-08-30T00:33:11;100990.78;;;17.35;85.33
41712;BME280;27399;51.516;13.670;2022-08-30T00:35:37;100988.28;;;16.93;86.01
41712;BME280;27399;51.516;13.670;2022-08-30T00:38:04;100984.59;;;17.32;85.55
41712;BME280;27399;51.516;13.670;2022-08-30T00:40:30;100977.19;;;17.07;86.21
41712;BME280;27399;51.516;13.670;2022-08-30T00:42:56;100988.41;;;17.25;85.96
41712;BME280;27399;51.516;13.670;2022-08-30T00:45:27;100981.53;;;17.13;85.70
41712;BME280;27399;51.516;13.670;2022-08-30T00:47:52;100990.59;;;17.43;84.83
41712;BME280;27399;51.516;13.670;2022-08-30T00:50:19;100993.38;;;17.40;84.76
41712;BME280;27399;51.516;13.670;2022-08-30T00:52:47;101000.53;;;17.41;84.42
41712;BME280;27399;51.516;13.670;2022-08-30T00:55:15;100991.50;;;17.09;85.11
41712;BME280;27399;51.516;13.670;2022-08-30T00:57:42;100988.47;;;17.22;84.38
41712;BME280;27399;51.516;13.670;2022-08-30T01:00:09;100994.44;;;17.00;84.28
41712;BME280;27399;51.516;13.670;2022-08-30T01:02:35;100982.25;;;17.19;84.17
41712;BME280;27399;51.516;13.670;2022-08-30T01:05:00;100980.66;;;17.12;84.71
41712;BME280;27399;51.516;13.670;2022-08-30T01:07:26;100984.94;;;17.19;84.55
41712;BME280;27399;51.516;13.670;2022-08-30T01:09:52;100972.81;;;17.03;84.64
41712;BME280;27399;51.516;13.670;2022-08-30T01:12:18;100986.88;;;16.78;85.43
41712;BME280;27399;51.516;13.670;2022-08-30T01:14:43;100992.03;;;16.87;84.85
41712;BME280;27399;51.516;13.670;2022-08-30T01:17:09;100994.25;;;17.08;84.67
41712;BME280;27399;51.516;13.670;2022-08-30T01:19:37;100996.66;;;16.82;84.87
41712;BME280;27399;51.516;13.670;2022-08-30T01:24:50;100989.25;;;16.91;83.92
41712;BME280;27399;51.516;13.670;2022-08-30T01:27:17;100988.22;;;16.98;84.14
41712;BME280;27399;51.516;13.670;2022-08-30T01:29:43;100996.25;;;16.99;84.27
41712;BME280;27399;51.516;13.670;2022-08-30T01:32:18;100992.78;;;16.94;84.01
41712;BME280;27399;51.516;13.670;2022-08-30T01:34:44;100997.13;;;17.00;83.75
41712;BME280;27399;51.516;13.670;2022-08-30T01:37:14;100991.53;;;16.71;84.42
41712;BME280;27399;51.516;13.670;2022-08-30T01:39:42;100990.63;;;17.09;83.74
41712;BME280;27399;51.516;13.670;2022-08-30T01:42:09;100995.72;;;17.19;82.85
41712;BME280;27399;51.516;13.670;2022-08-30T01:44:34;101002.94;;;16.45;85.60
41712;BME280;27399;51.516;13.670;2022-08-30T01:47:00;100996.66;;;16.82;84.30
41712;BME280;27399;51.516;13.670;2022-08-30T01:49:25;100999.53;;;16.75;84.55
41712;BME280;27399;51.516;13.670;2022-08-30T01:51:50;100999.16;;;16.52;85.34
41712;BME280;27399;51.516;13.670;2022-08-30T01:54:16;100986.03;;;16.76;84.66
41712;BME280;27399;51.516;13.670;2022-08-30T01:56:42;100986.09;;;16.75;84.80
41712;BME280;27399;51.516;13.670;2022-08-30T01:59:07;100994.41;;;16.64;84.64
41712;BME280;27399;51.516;13.670;2022-08-30T02:01:33;100988.09;;;16.65;84.58
41712;BME280;27399;51.516;13.670;2022-08-30T02:04:01;101000.41;;;16.39;85.17
41712;BME280;27399;51.516;13.670;2022-08-30T02:06:26;100996.25;;;16.62;84.25
41712;BME280;27399;51.516;13.670;2022-08-30T02:08:52;101002.41;;;16.67;84.52
41712;BME280;27399;51.516;13.670;2022-08-30T02:11:17;100989.75;;;16.70;84.19
41712;BME280;27399;51.516;13.670;2022-08-30T02:13:44;100996.19;;;16.65;84.07
41712;BME280;27399;51.516;13.670;2022-08-30T02:16:11;100992.47;;;16.33;85.15
41712;BME280;27399;51.516;13.670;2022-08-30T02:18:37;100986.50;;;16.57;84.21
41712;BME280;27399;51.516;13.670;2022-08-30T02:21:03;100984.69;;;16.58;84.25
41712;BME280;27399;51.516;13.670;2022-08-30T02:23:29;100992.88;;;16.53;84.35
41712;BME280;27399;51.516;13.670;2022-08-30T02:25:55;100987.72;;;16.44;84.75
41712;BME280;27399;51.516;13.670;2022-08-30T02:28:21;100988.28;;;16.58;84.23
41712;BME280;27399;51.516;13.670;2022-08-30T02:30:46;100987.53;;;16.52;84.14
41712;BME280;27399;51.516;13.670;2022-08-30T02:33:12;100990.97;;;16.58;83.52
41712;BME280;27399;51.516;13.670;2022-08-30T02:35:40;100991.22;;;16.48;83.81
41712;BME280;27399;51.516;13.670;2022-08-30T02:40:53;100996.69;;;16.43;84.36
41712;BME280;27399;51.516;13.670;2022-08-30T02:43:19;101004.78;;;16.43;84.84
41712;BME280;27399;51.516;13.670;2022-08-30T02:45:44;100998.56;;;16.00;85.70
41712;BME280;27399;51.516;13.670;2022-08-30T02:48:10;100994.28;;;16.32;84.79
41712;BME280;27399;51.516;13.670;2022-08-30T02:50:40;100994.72;;;16.12;85.21
41712;BME280;27399;51.516;13.670;2022-08-30T02:53:05;100986.03;;;15.99;85.84
41712;BME280;27399;51.516;13.670;2022-08-30T02:55:33;100976.03;;;16.45;84.31
41712;BME280;27399;51.516;13.670;2022-08-30T02:57:59;100978.75;;;16.44;84.12
41712;BME280;27399;51.516;13.670;2022-08-30T03:00:25;100985.66;;;16.16;84.49
41712;BME280;27399;51.516;13.670;2022-08-30T03:02:50;100980.66;;;16.40;83.92
41712;BME280;27399;51.516;13.670;2022-08-30T03:05:16;100988.59;;;16.45;83.69
41712;BME280;27399;51.516;13.670;2022-08-30T03:07:42;100986.81;;;16.04;84.71
41712;BME280;27399;51.516;13.670;2022-08-30T03:10:08;100985.66;;;16.16;84.09
41712;BME280;27399;51.516;13.670;2022-08-30T03:12:33;100986.44;;;16.21;83.59
41712;BME280;27399;51.516;13.670;2022-08-30T03:14:59;100990.25;;;16.11;84.48
41712;BME280;27399;51.516;13.670;2022-08-30T03:17:25;100989.84;;;15.43;87.00
41712;BME280;27399;51.516;13.670;2022-08-30T03:19:50;100990.16;;;16.16;84.37
41712;BME280;27399;51.516;13.670;2022-08-30T03:22:16;100984.44;;;16.30;83.96
41712;BME280;27399;51.516;13.670;2022-08-30T03:24:42;100992.19;;;16.06;84.15
41712;BME280;27399;51.516;13.670;2022-08-30T03:27:10;100990.47;;;15.56;85.33
41712;BME280;27399;51.516;13.670;2022-08-30T03:29:36;100991.03;;;15.74;85.41
41712;BME280;27399;51.516;13.670;2022-08-30T03:32:01;100985.03;;;15.59;86.02
41712;BME280;27399;51.516;13.670;2022-08-30T03:34:27;100986.53;;;15.74;85.46
41712;BME280;27399;51.516;13.670;2022-08-30T03:36:53;100989.69;;;15.97;83.97
41712;BME280;27399;51.516;13.670;2022-08-30T03:39:20;100988.31;;;15.75;84.90
41712;BME280;27399;51.516;13.670;2022-08-30T03:41:46;100988.53;;;15.64;85.16
41712;BME280;27399;51.516;13.670;2022-08-30T03:44:11;100992.19;;;15.60;85.25
41712;BME280;27399;51.516;13.670;2022-08-30T03:46:37;100987.47;;;15.26;86.05
41712;BME280;27399;51.516;13.670;2022-08-30T03:49:03;100987.91;;;15.03;86.24
41712;BME280;27399;51.516;13.670;2022-08-30T03:51:29;100992.25;;;15.12;85.68
41712;BME280;27399;51.516;13.670;2022-08-30T03:53:55;100987.38;;;15.32;85.44
41712;BME280;27399;51.516;13.670;2022-08-30T03:56:20;100990.03;;;15.34;85.37
41712;BME280;27399;51.516;13.670;2022-08-30T03:58:46;100986.56;;;15.27;85.77
41712;BME280;27399;51.516;13.670;2022-08-30T04:01:12;100993.63;;;15.77;84.64
41712;BME280;27399;51.516;13.670;2022-08-30T04:03:38;100995.66;;;15.67;84.00
41712;BME280;27399;51.516;13.670;2022-08-30T04:06:03;100998.97;;;15.80;83.81
41712;BME280;27399;51.516;13.670;2022-08-30T04:08:29;100991.25;;;15.16;84.89
41712;BME280;27399;51.516;13.670;2022-08-30T04:10:55;100996.59;;;15.19;85.00
41712;BME280;27399;51.516;13.670;2022-08-30T04:13:21;100995.31;;;15.39;85.04
41712;BME280;27399;51.516;13.670;2022-08-30T04:15:47;101006.31;;;15.72;83.82
41712;BME280;27399;51.516;13.670;2022-08-30T04:18:13;100999.03;;;15.31;84.25
41712;BME280;27399;51.516;13.670;2022-08-30T04:20:39;100999.78;;;15.40;84.93
41712;BME280;27399;51.516;13.670;2022-08-30T04:23:05;101004.38;;;15.33;84.58
41712;BME280;27399;51.516;13.670;2022-08-30T04:25:34;101004.88;;;15.54;84.43
41712;BME280;27399;51.516;13.670;2022-08-30T04:28:00;101015.53;;;15.60;84.07
41712;BME280;27399;51.516;13.670;2022-08-30T04:30:25;101016.41;;;15.60;84.33
41712;BME280;27399;51.516;13.670;2022-08-30T04:32:51;101015.19;;;14.80;86.85
41712;BME280;27399;51.516;13.670;2022-08-30T04:35:17;101013.81;;;15.06;86.21
41712;BME280;27399;51.516;13.670;2022-08-30T04:37:42;101013.44;;;15.27;85.67
41712;BME280;27399;51.516;13.670;2022-08-30T04:40:08;101024.13;;;15.30;85.50
41712;BME280;27399;51.516;13.670;2022-08-30T04:42:34;101023.19;;;15.33;85.34
41712;BME280;27399;51.516;13.670;2022-08-30T04:45:01;101019.38;;;14.96;86.03
41712;BME280;27399;51.516;13.670;2022-08-30T04:47:26;101024.78;;;15.45;84.31
41712;BME280;27399;51.516;13.670;2022-08-30T04:49:53;101036.06;;;15.62;83.73
41712;BME280;27399;51.516;13.670;2022-08-30T04:52:18;101033.41;;;15.61;84.17
41712;BME280;27399;51.516;13.670;2022-08-30T04:54:44;101036.75;;;15.25;85.32
41712;BME280;27399;51.516;13.670;2022-08-30T04:57:10;101029.47;;;15.33;84.95
41712;BME280;27399;51.516;13.670;2022-08-30T04:59:37;101044.72;;;14.80;86.94
41712;BME280;27399;51.516;13.670;2022-08-30T05:02:02;101041.31;;;15.22;86.23
41712;BME280;27399;51.516;13.670;2022-08-30T05:04:31;101040.88;;;15.46;85.53
41712;BME280;27399;51.516;13.670;2022-08-30T05:06:56;101044.03;;;15.20;86.25
41712;BME280;27399;51.516;13.670;2022-08-30T05:09:25;101048.78;;;15.54;85.87
41712;BME280;27399;51.516;13.670;2022-08-30T05:11:50;101057.88;;;15.47;86.00
41712;BME280;27399;51.516;13.670;2022-08-30T05:14:19;101045.91;;;15.15;87.00
41712;BME280;27399;51.516;13.670;2022-08-30T05:16:44;101057.94;;;15.44;86.58
41712;BME280;27399;51.516;13.670;2022-08-30T05:19:10;101066.44;;;15.68;86.05
41712;BME280;27399;51.516;13.670;2022-08-30T05:21:35;101065.31;;;15.32;87.14
41712;BME280;27399;51.516;13.670;2022-08-30T05:24:04;101061.72;;;15.33;88.08
41712;BME280;27399;51.516;13.670;2022-08-30T05:26:32;101059.22;;;15.70;86.17
41712;BME280;27399;51.516;13.670;2022-08-30T05:28:58;101053.75;;;15.27;87.55
41712;BME280;27399;51.516;13.670;2022-08-30T05:31:29;101057.91;;;14.92;89.31
41712;BME280;27399;51.516;13.670;2022-08-30T05:33:55;101062.00;;;15.65;87.28
41712;BME280;27399;51.516;13.670;2022-08-30T05:36:21;101055.41;;;15.34;89.17
41712;BME280;27399;51.516;13.670;2022-08-30T05:38:47;101058.25;;;15.25;90.71
41712;BME280;27399;51.516;13.670;2022-08-30T05:41:14;101045.03;;;15.14;91.11
41712;BME280;27399;51.516;13.670;2022-08-30T05:43:42;101051.84;;;15.81;88.85
41712;BME280;27399;51.516;13.670;2022-08-30T05:46:10;101064.16;;;15.94;88.54
41712;BME280;27399;51.516;13.670;2022-08-30T05:48:36;101056.59;;;15.67;89.78
41712;BME280;27399;51.516;13.670;2022-08-30T05:53:30;101056.38;;;16.23;88.14
41712;BME280;27399;51.516;13.670;2022-08-30T05:55:56;101065.34;;;16.23;88.70
41712;BME280;27399;51.516;13.670;2022-08-30T05:58:22;101067.22;;;16.20;89.41
41712;BME280;27399;51.516;13.670;2022-08-30T06:00:47;101058.78;;;15.93;90.68
41712;BME280;27399;51.516;13.670;2022-08-30T06:03:13;101063.00;;;16.08;91.43
41712;BME280;27399;51.516;13.670;2022-08-30T06:05:39;101066.00;;;16.35;90.04
41712;BME280;27399;51.516;13.670;2022-08-30T06:08:04;101069.44;;;16.41;90.13
41712;BME280;27399;51.516;13.670;2022-08-30T06:10:33;101072.38;;;16.70;88.89
41712;BME280;27399;51.516;13.670;2022-08-30T06:12:59;101075.19;;;16.64;89.59
41712;BME280;27399;51.516;13.670;2022-08-30T06:15:24;101087.09;;;16.93;89.03
41712;BME280;27399;51.516;13.670;2022-08-30T06:17:50;101074.34;;;17.01;89.73
41712;BME280;27399;51.516;13.670;2022-08-30T06:20:15;101083.97;;;17.11;90.48
41712;BME280;27399;51.516;13.670;2022-08-30T06:22:44;101072.34;;;17.09;91.71
41712;BME280;27399;51.516;13.670;2022-08-30T06:25:10;101080.38;;;17.12;91.87
41712;BME280;27399;51.516;13.670;2022-08-30T06:27:36;101077.59;;;16.76;93.45
41712;BME280;27399;51.516;13.670;2022-08-30T06:30:01;101076.91;;;16.68;94.59
41712;BME280;27399;51.516;13.670;2022-08-30T06:32:27;101076.47;;;16.86;94.40
41712;BME280;27399;51.516;13.670;2022-08-30T06:34:53;101076.91;;;16.68;95.59
41712;BME280;27399;51.516;13.670;2022-08-30T06:37:18;101078.41;;;16.81;95.67
41712;BME280;27399;51.516;13.670;2022-08-30T06:39:44;101069.72;;;17.41;93.29
41712;BME280;27399;51.516;13.670;2022-08-30T06:42:10;101066.22;;;17.72;91.56
41712;BME280;27399;51.516;13.670;2022-08-30T06:44:35;101079.56;;;17.43;93.32
41712;BME280;27399;51.516;13.670;2022-08-30T06:47:01;101075.91;;;17.46;94.24
41712;BME280;27399;51.516;13.670;2022-08-30T06:49:26;101070.16;;;17.58;93.35
41712;BME280;27399;51.516;13.670;2022-08-30T06:51:52;101078.84;;;17.37;94.77
41712;BME280;27399;51.516;13.670;2022-08-30T06:54:18;101066.56;;;17.59;94.26
41712;BME280;27399;51.516;13.670;2022-08-30T06:56:43;101074.00;;;17.49;94.69
41712;BME280;27399;51.516;13.670;2022-08-30T06:59:09;101076.88;;;17.43;95.99
41712;BME280;27399;51.516;13.670;2022-08-30T07:01:34;101064.19;;;17.80;94.58
41712;BME280;27399;51.516;13.670;2022-08-30T07:04:00;101070.63;;;17.74;94.04
41712;BME280;27399;51.516;13.670;2022-08-30T07:06:26;101076.53;;;17.56;94.07
41712;BME280;27399;51.516;13.670;2022-08-30T07:08:52;101070.28;;;18.20;92.87
41712;BME280;27399;51.516;13.670;2022-08-30T07:11:25;101074.16;;;18.39;91.90
41712;BME280;27399;51.516;13.670;2022-08-30T07:13:51;101082.53;;;18.60;90.26
41712;BME280;27399;51.516;13.670;2022-08-30T07:16:16;101079.72;;;18.63;90.92
41712;BME280;27399;51.516;13.670;2022-08-30T07:18:42;101077.44;;;18.51;89.58
41712;BME280;27399;51.516;13.670;2022-08-30T07:21:24;101077.63;;;18.73;88.96
41712;BME280;27399;51.516;13.670;2022-08-30T07:23:53;101085.97;;;18.65;89.66
41712;BME280;27399;51.516;13.670;2022-08-30T07:26:22;101083.72;;;18.80;90.06
41712;BME280;27399;51.516;13.670;2022-08-30T07:28:48;101082.56;;;18.87;90.55
41712;BME280;27399;51.516;13.670;2022-08-30T07:31:14;101080.38;;;19.00;90.18
41712;BME280;27399;51.516;13.670;2022-08-30T07:33:40;101075.94;;;18.99;89.76
41712;BME280;27399;51.516;13.670;2022-08-30T07:36:06;101073.78;;;19.09;88.44
41712;BME280;27399;51.516;13.670;2022-08-30T07:38:32;101089.44;;;18.69;91.67
41712;BME280;27399;51.516;13.670;2022-08-30T07:40:58;101083.63;;;18.83;92.52
41712;BME280;27399;51.516;13.670;2022-08-30T07:43:26;101094.28;;;18.87;91.27
41712;BME280;27399;51.516;13.670;2022-08-30T07:45:51;101089.38;;;19.27;90.21
41712;BME280;27399;51.516;13.670;2022-08-30T07:48:20;101095.81;;;19.50;90.85
41712;BME280;27399;51.516;13.670;2022-08-30T07:50:45;101095.16;;;19.69;89.32
41712;BME280;27399;51.516;13.670;2022-08-30T07:53:11;101101.59;;;19.91;90.56
41712;BME280;27399;51.516;13.670;2022-08-30T07:55:37;101090.88;;;20.12;88.25
41712;BME280;27399;51.516;13.670;2022-08-30T07:58:03;101095.97;;;19.97;89.42
41712;BME280;27399;51.516;13.670;2022-08-30T08:00:28;101093.31;;;20.20;87.27
41712;BME280;27399;51.516;13.670;2022-08-30T08:02:58;101095.94;;;20.21;87.79
41712;BME280;27399;51.516;13.670;2022-08-30T08:05:28;101099.50;;;20.23;87.21
41712;BME280;27399;51.516;13.670;2022-08-30T08:07:59;101097.41;;;20.32;87.26
41712;BME280;27399;51.516;13.670;2022-08-30T08:10:24;101101.34;;;20.47;86.56
41712;BME280;27399;51.516;13.670;2022-08-30T08:12:50;101106.69;;;20.24;86.53
41712;BME280;27399;51.516;13.670;2022-08-30T08:15:15;101108.94;;;20.59;85.94
41712;BME280;27399;51.516;13.670;2022-08-30T08:17:41;101111.25;;;20.70;85.95
41712;BME280;27399;51.516;13.670;2022-08-30T08:20:16;101109.97;;;20.56;86.60
41712;BME280;27399;51.516;13.670;2022-08-30T08:22:42;101111.63;;;20.61;86.25
41712;BME280;27399;51.516;13.670;2022-08-30T08:25:07;101103.03;;;20.71;86.30
41712;BME280;27399;51.516;13.670;2022-08-30T08:27:33;101111.63;;;20.61;86.89
41712;BME280;27399;51.516;13.670;2022-08-30T08:30:02;101098.63;;;20.93;85.77
41712;BME280;27399;51.516;13.670;2022-08-30T08:32:27;101115.38;;;21.02;86.18
41712;BME280;27399;51.516;13.670;2022-08-30T08:34:53;101112.75;;;21.01;85.98
41712;BME280;27399;51.516;13.670;2022-08-30T08:37:18;101108.81;;;21.30;84.62
41712;BME280;27399;51.516;13.670;2022-08-30T08:39:45;101103.19;;;21.35;84.06
41712;BME280;27399;51.516;13.670;2022-08-30T08:42:24;101104.34;;;21.50;84.33
41712;BME280;27399;51.516;13.670;2022-08-30T08:44:58;101095.03;;;21.78;82.85
41712;BME280;27399;51.516;13.670;2022-08-30T08:47:28;101109.44;;;21.37;86.41
41712;BME280;27399;51.516;13.670;2022-08-30T08:49:58;101104.09;;;21.77;85.16
41712;BME280;27399;51.516;13.670;2022-08-30T08:55:30;101102.81;;;22.06;83.00
41712;BME280;27399;51.516;13.670;2022-08-30T08:57:56;101104.38;;;22.31;82.19
41712;BME280;27399;51.516;13.670;2022-08-30T09:00:21;101098.59;;;22.58;82.70
41712;BME280;27399;51.516;13.670;2022-08-30T09:02:51;101094.72;;;23.00;79.91
41712;BME280;27399;51.516;13.670;2022-08-30T09:05:18;101096.00;;;22.93;80.50
41712;BME280;27399;51.516;13.670;2022-08-30T09:07:49;101106.09;;;23.09;80.38
41712;BME280;27399;51.516;13.670;2022-08-30T09:10:16;101104.75;;;23.00;78.75
41712;BME280;27399;51.516;13.670;2022-08-30T09:12:42;101112.34;;;23.11;78.71
41712;BME280;27399;51.516;13.670;2022-08-30T09:15:22;101104.91;;;23.14;78.87
41712;BME280;27399;51.516;13.670;2022-08-30T09:20:24;101112.44;;;23.09;77.95
41712;BME280;27399;51.516;13.670;2022-08-30T09:22:49;101106.19;;;23.07;78.94
41712;BME280;27399;51.516;13.670;2022-08-30T09:25:23;101110.84;;;22.86;80.45
41712;BME280;27399;51.516;13.670;2022-08-30T09:27:49;101106.75;;;22.96;79.50
41712;BME280;27399;51.516;13.670;2022-08-30T09:33:02;101114.56;;;22.66;80.78
41712;BME280;27399;51.516;13.670;2022-08-30T09:35:36;101112.72;;;22.47;81.43
41712;BME280;27399;51.516;13.670;2022-08-30T09:38:06;101110.59;;;22.54;81.84
41712;BME280;27399;51.516;13.670;2022-08-30T09:43:08;101107.38;;;23.01;79.65
41712;BME280;27399;51.516;13.670;2022-08-30T09:45:35;101115.94;;;22.74;81.13
41712;BME280;27399;51.516;13.670;2022-08-30T09:50:45;101101.72;;;22.87;78.86
41712;BME280;27399;51.516;13.670;2022-08-30T09:53:16;101105.13;;;22.92;79.63
41712;BME280;27399;51.516;13.670;2022-08-30T10:01:03;101110.34;;;22.78;79.35
41712;BME280;27399;51.516;13.670;2022-08-30T10:03:35;101113.31;;;23.10;79.09
41712;BME280;27399;51.516;13.670;2022-08-30T10:06:20;101107.28;;;23.03;79.08
41712;BME280;27399;51.516;13.670;2022-08-30T10:08:49;101109.47;;;22.96;79.22
41712;BME280;27399;51.516;13.670;2022-08-30T10:14:17;101106.88;;;22.93;79.53
41712;BME280;27399;51.516;13.670;2022-08-30T10:19:24;101102.19;;;22.78;80.90
41712;BME280;27399;51.516;13.670;2022-08-30T10:21:59;101104.44;;;22.87;81.12
41712;BME280;27399;51.516;13.670;2022-08-30T10:24:29;101102.66;;;22.68;81.49
41712;BME280;27399;51.516;13.670;2022-08-30T10:26:59;101108.66;;;22.56;79.31
41712;BME280;27399;51.516;13.670;2022-08-30T10:29:43;101100.38;;;22.78;78.52
41712;BME280;27399;51.516;13.670;2022-08-30T10:34:56;101092.09;;;22.62;79.47
41712;BME280;27399;51.516;13.670;2022-08-30T10:37:26;101095.63;;;23.01;79.55
41712;BME280;27399;51.516;13.670;2022-08-30T10:39:56;101088.44;;;23.17;78.83
41712;BME280;27399;51.516;13.670;2022-08-30T10:42:25;101087.56;;;23.17;78.92
41712;BME280;27399;51.516;13.670;2022-08-30T10:44:53;101087.44;;;23.20;78.80
41712;BME280;27399;51.516;13.670;2022-08-30T10:47:34;101084.03;;;23.15;77.76
41712;BME280;27399;51.516;13.670;2022-08-30T10:57:43;101078.38;;;23.55;76.13
41712;BME280;27399;51.516;13.670;2022-08-30T11:00:10;101091.38;;;23.49;76.02
41712;BME280;27399;51.516;13.670;2022-08-30T11:02:59;101082.88;;;23.20;75.30
41712;BME280;27399;51.516;13.670;2022-08-30T11:05:38;101089.00;;;23.43;76.12
41712;BME280;27399;51.516;13.670;2022-08-30T11:15:29;101071.38;;;23.84;77.55
41712;BME280;27399;51.516;13.670;2022-08-30T11:17:59;101075.91;;;23.67;76.93
41712;BME280;27399;51.516;13.670;2022-08-30T11:33:30;101067.31;;;24.58;70.97
41712;BME280;27399;51.516;13.670;2022-08-30T11:35:55;101066.81;;;24.84;70.98
41712;BME280;27399;51.516;13.670;2022-08-30T11:48:47;101060.97;;;25.06;70.54
41712;BME280;27399;51.516;13.670;2022-08-30T11:56:31;101062.50;;;25.26;70.26
41712;BME280;27399;51.516;13.670;2022-08-30T12:03:52;101055.81;;;25.01;68.80
41712;BME280;27399;51.516;13.670;2022-08-30T12:09:03;101051.00;;;25.35;69.00
41712;BME280;27399;51.516;13.670;2022-08-30T12:13:57;101052.34;;;24.66;65.52
41712;BME280;27399;51.516;13.670;2022-08-30T12:16:44;101042.81;;;25.35;66.86
41712;BME280;27399;51.516;13.670;2022-08-30T12:19:31;101038.66;;;25.14;67.25
41712;BME280;27399;51.516;13.670;2022-08-30T12:21:58;101042.34;;;24.82;65.56
41712;BME280;27399;51.516;13.670;2022-08-30T12:24:27;101038.94;;;25.09;63.44
41712;BME280;27399;51.516;13.670;2022-08-30T12:26:56;101034.28;;;25.11;66.85
41712;BME280;27399;51.516;13.670;2022-08-30T12:42:21;101022.19;;;24.85;69.05
41712;BME280;27399;51.516;13.670;2022-08-30T12:44:51;101021.94;;;24.57;68.41
41712;BME280;27399;51.516;13.670;2022-08-30T12:47:19;101015.88;;;24.36;70.20
41712;BME280;27399;51.516;13.670;2022-08-30T12:49:46;101008.59;;;24.69;68.08
41712;BME280;27399;51.516;13.670;2022-08-30T12:54:50;101012.00;;;24.24;69.41
41712;BME280;27399;51.516;13.670;2022-08-30T13:00:00;101012.97;;;24.23;71.63
41712;BME280;27399;51.516;13.670;2022-08-30T13:02:27;101014.28;;;24.48;67.99
41712;BME280;27399;51.516;13.670;2022-08-30T13:04:53;101012.72;;;24.28;67.80
41712;BME280;27399;51.516;13.670;2022-08-30T13:07:27;101013.84;;;24.24;66.75
41712;BME280;27399;51.516;13.670;2022-08-30T13:10:26;101011.31;;;23.87;69.54
41712;BME280;27399;51.516;13.670;2022-08-30T13:13:01;101000.66;;;24.32;67.74
41712;BME280;27399;51.516;13.670;2022-08-30T13:15:28;101004.03;;;24.21;68.49
41712;BME280;27399;51.516;13.670;2022-08-30T13:18:09;101002.88;;;23.92;68.24
41712;BME280;27399;51.516;13.670;2022-08-30T13:20:35;101006.09;;;24.16;68.93
41712;BME280;27399;51.516;13.670;2022-08-30T13:25:29;101005.56;;;24.57;67.30
41712;BME280;27399;51.516;13.670;2022-08-30T13:27:55;101005.94;;;24.51;67.35
41712;BME280;27399;51.516;13.670;2022-08-30T13:30:21;101004.75;;;24.87;65.96
41712;BME280;27399;51.516;13.670;2022-08-30T13:32:47;100999.19;;;25.05;64.79
41712;BME280;27399;51.516;13.670;2022-08-30T13:35:12;100998.25;;;25.20;62.22
41712;BME280;27399;51.516;13.670;2022-08-30T13:37:38;101001.13;;;25.03;63.94
41712;BME280;27399;51.516;13.670;2022-08-30T13:40:06;100982.81;;;25.05;62.93
41712;BME280;27399;51.516;13.670;2022-08-30T13:42:32;100989.84;;;25.09;62.31
41712;BME280;27399;51.516;13.670;2022-08-30T13:44:57;100990.25;;;25.17;61.40
41712;BME280;27399;51.516;13.670;2022-08-30T13:47:22;100984.81;;;25.17;61.40
41712;BME280;27399;51.516;13.670;2022-08-30T13:49:48;100978.00;;;25.25;63.04
41712;BME280;27399;51.516;13.670;2022-08-30T13:52:19;100979.13;;;25.20;63.17
41712;BME280;27399;51.516;13.670;2022-08-30T13:54:47;100972.34;;;25.28;60.15
41712;BME280;27399;51.516;13.670;2022-08-30T13:57:12;100969.00;;;25.22;61.25
41712;BME280;27399;51.516;13.670;2022-08-30T13:59:38;100972.97;;;25.02;61.93
41712;BME280;27399;51.516;13.670;2022-08-30T14:02:03;100966.13;;;24.95;61.69
41712;BME280;27399;51.516;13.670;2022-08-30T14:04:29;100962.59;;;25.24;62.48
41712;BME280;27399;51.516;13.670;2022-08-30T14:06:54;100967.47;;;25.33;61.51
41712;BME280;27399;51.516;13.670;2022-08-30T14:09:20;100960.78;;;25.08;62.98
41712;BME280;27399;51.516;13.670;2022-08-30T14:11:45;100966.31;;;25.37;60.45
41712;BME280;27399;51.516;13.670;2022-08-30T14:14:10;100960.19;;;25.03;61.86
41712;BME280;27399;51.516;13.670;2022-08-30T14:16:37;100959.47;;;25.15;58.47
41712;BME280;27399;51.516;13.670;2022-08-30T14:19:03;100957.94;;;25.40;60.50
41712;BME280;27399;51.516;13.670;2022-08-30T14:21:28;100956.13;;;25.10;63.03
41712;BME280;27399;51.516;13.670;2022-08-30T14:23:54;100954.28;;;25.25;61.92
41712;BME280;27399;51.516;13.670;2022-08-30T14:26:25;100957.88;;;25.42;60.73
41712;BME280;27399;51.516;13.670;2022-08-30T14:28:52;100961.44;;;25.28;61.32
41712;BME280;27399;51.516;13.670;2022-08-30T14:31:18;100953.81;;;25.18;61.38